createdAt,value
2018-10-01T00:00:16.011Z,98847.80
2018-10-01T00:02:44.331Z,98848.77
2018-10-01T00:05:12.610Z,98853.59
2018-10-01T00:07:40.902Z,98848.88
2018-10-01T00:10:09.284Z,98851.53
2018-10-01T00:12:37.631Z,98855.38
2018-10-01T00:15:06.850Z,98857.29
2018-10-01T00:17:35.183Z,98855.14
2018-10-01T00:20:08.807Z,98851.17
2018-10-01T00:22:42.566Z,98849.94
2018-10-01T00:25:10.934Z,98846.94
2018-10-01T00:27:39.242Z,98850.05
2018-10-01T00:30:07.550Z,98845.38
2018-10-01T00:32:36.085Z,98849.70
2018-10-01T00:35:04.399Z,98844.53
2018-10-01T00:37:32.731Z,98839.71
2018-10-01T00:40:01.042Z,98839.24
2018-10-01T00:42:29.462Z,98832.75
2018-10-01T00:44:57.746Z,98832.36
2018-10-01T00:47:26.095Z,98832.87
2018-10-01T00:49:54.365Z,98835.52
2018-10-01T00:52:22.667Z,98829.37
2018-10-01T00:54:50.951Z,98838.16
2018-10-01T00:57:19.346Z,98835.59
2018-10-01T00:59:47.698Z,98835.98
2018-10-01T01:02:16.136Z,98837.42
2018-10-01T01:04:44.427Z,98829.60
2018-10-01T01:07:12.755Z,98834.27
2018-10-01T01:09:41.084Z,98834.39
2018-10-01T01:12:09.814Z,98841.85
2018-10-01T01:14:38.599Z,98841.85
2018-10-01T01:17:07.178Z,98839.33
2018-10-01T01:19:35.486Z,98835.36
2018-10-01T01:22:03.863Z,98835.83
2018-10-01T01:24:32.186Z,98839.80
2018-10-01T01:27:00.506Z,98839.33
2018-10-01T01:29:28.895Z,98843.37
2018-10-01T01:31:57.378Z,98841.12
2018-10-01T01:34:25.822Z,98836.03
2018-10-01T01:36:54.215Z,98832.80
2018-10-01T01:39:22.518Z,98827.52
2018-10-01T01:41:50.827Z,98823.16
2018-10-01T01:44:19.162Z,98817.88
2018-10-01T01:46:47.486Z,98817.52
2018-10-01T01:49:15.795Z,98825.45
2018-10-01T01:51:44.262Z,98832.06
2018-10-01T01:54:12.574Z,98828.68
2018-10-01T01:56:40.846Z,98827.36
2018-10-01T01:59:09.147Z,98824.25
2018-10-01T02:01:37.494Z,98823.89
2018-10-01T02:04:05.879Z,98823.04
2018-10-01T02:06:34.211Z,98814.72
2018-10-01T02:09:02.527Z,98822.66
2018-10-01T02:11:30.935Z,98824.48
2018-10-01T02:13:59.243Z,98833.73
2018-10-01T02:16:27.563Z,98832.41
2018-10-01T02:18:55.870Z,98835.99
2018-10-01T02:21:24.198Z,98833.85
2018-10-01T02:23:52.606Z,98836.97
2018-10-01T02:26:20.895Z,98840.81
2018-10-01T02:28:49.177Z,98839.14
2018-10-01T02:31:17.456Z,98838.29
2018-10-01T02:33:45.794Z,98834.91
2018-10-01T02:36:14.210Z,98834.44
2018-10-01T02:38:42.548Z,98839.34
2018-10-01T02:41:10.822Z,98838.41
2018-10-01T02:43:39.198Z,98833.58
2018-10-01T02:46:07.531Z,98834.05
2018-10-01T02:48:35.835Z,98834.05
2018-10-01T02:51:04.126Z,98831.41
2018-10-01T02:53:38.171Z,98831.52
2018-10-01T02:56:06.462Z,98827.91
2018-10-01T02:58:34.765Z,98834.17
2018-10-01T03:01:03.095Z,98848.71
2018-10-01T03:03:31.498Z,98846.57
2018-10-01T03:05:59.796Z,98841.36
2018-10-01T03:08:28.115Z,98846.65
2018-10-01T03:10:56.423Z,98849.30
2018-10-01T03:13:24.814Z,98848.47
2018-10-01T03:15:53.100Z,98840.55
2018-10-01T03:18:21.407Z,98837.90
2018-10-01T03:20:49.747Z,98843.30
2018-10-01T03:23:18.047Z,98844.13
2018-10-01T03:25:46.350Z,98837.16
2018-10-01T03:28:14.645Z,98838.84
2018-10-01T03:30:42.991Z,98839.80
2018-10-01T03:33:11.355Z,98838.95
2018-10-01T03:35:39.634Z,98842.09
2018-10-01T03:38:07.933Z,98843.41
2018-10-01T03:40:36.225Z,98841.24
2018-10-01T03:43:04.520Z,98848.31
2018-10-01T03:45:32.930Z,98844.00
2018-10-01T03:48:01.242Z,98845.67
2018-10-01T03:50:29.663Z,98838.72
2018-10-01T03:52:57.982Z,98840.62
2018-10-01T03:55:26.307Z,98845.79
2018-10-01T03:57:54.584Z,98840.62
2018-10-01T04:00:22.962Z,98844.12
2018-10-01T04:02:51.591Z,98837.63
2018-10-01T04:05:19.875Z,98842.91
2018-10-01T04:07:48.208Z,98849.52
2018-10-01T04:10:16.503Z,98837.23
2018-10-01T04:12:44.817Z,98844.31
2018-10-01T04:15:13.226Z,98840.73
2018-10-01T04:17:41.547Z,98847.81
2018-10-01T04:20:09.862Z,98850.34
2018-10-01T04:22:39.237Z,98850.84
2018-10-01T04:25:08.912Z,98861.03
2018-10-01T04:27:37.729Z,98864.99
2018-10-01T04:30:07.856Z,98862.35
2018-10-01T04:32:36.151Z,98860.17
2018-10-01T04:35:04.490Z,98864.14
2018-10-01T04:37:32.827Z,98860.67
2018-10-01T04:40:01.132Z,98868.11
2018-10-01T04:42:29.422Z,98872.92
2018-10-01T04:44:57.773Z,98876.16
2018-10-01T04:47:26.126Z,98873.89
2018-10-01T04:49:54.455Z,98879.92
2018-10-01T04:52:22.735Z,98884.47
2018-10-01T04:54:51.023Z,98883.14
2018-10-01T04:57:19.366Z,98882.64
2018-10-01T04:59:47.667Z,98891.42
2018-10-01T05:02:16.009Z,98889.25
2018-10-01T05:04:44.358Z,98897.69
2018-10-01T05:07:13.631Z,98896.83
2018-10-01T05:09:41.946Z,98902.58
2018-10-01T05:12:10.371Z,98904.76
2018-10-01T05:14:38.792Z,98902.58
2018-10-01T05:17:07.090Z,98906.94
2018-10-01T05:19:35.466Z,98909.70
2018-10-01T05:22:03.862Z,98909.70
2018-10-01T05:24:33.225Z,98914.48
2018-10-01T05:27:01.580Z,98917.98
2018-10-01T05:29:29.916Z,98915.33
2018-10-01T05:31:58.400Z,98922.91
2018-10-01T05:34:26.719Z,98923.84
2018-10-01T05:36:55.123Z,98923.38
2018-10-01T05:39:23.672Z,98916.38
2018-10-01T05:41:52.082Z,98926.95
2018-10-01T05:44:20.366Z,98930.92
2018-10-01T05:46:48.697Z,98928.27
2018-10-01T05:49:17.092Z,98929.59
2018-10-01T05:51:45.350Z,98931.77
2018-10-01T05:54:13.657Z,98926.95
2018-10-01T05:56:42.060Z,98927.07
2018-10-01T05:59:10.758Z,98932.74
2018-10-01T06:01:39.116Z,98931.53
2018-10-01T06:04:07.452Z,98932.00
2018-10-01T06:06:35.785Z,98940.78
2018-10-01T06:09:05.819Z,98945.22
2018-10-01T06:11:34.126Z,98944.86
2018-10-01T06:14:02.435Z,98947.00
2018-10-01T06:16:30.746Z,98948.33
2018-10-01T06:18:59.315Z,98942.58
2018-10-01T06:21:27.613Z,98944.75
2018-10-01T06:23:55.943Z,98962.40
2018-10-01T06:26:24.243Z,98969.86
2018-10-01T06:28:52.586Z,98973.44
2018-10-01T06:31:21.008Z,98975.26
2018-10-01T06:33:49.327Z,98971.65
2018-10-01T06:36:17.783Z,98971.65
2018-10-01T06:38:46.112Z,98966.72
2018-10-01T06:41:14.515Z,98972.86
2018-10-01T06:43:42.995Z,98967.22
2018-10-01T06:46:11.405Z,98972.39
2018-10-01T06:48:39.798Z,98978.50
2018-10-01T06:51:08.111Z,98988.14
2018-10-01T06:53:36.487Z,98991.25
2018-10-01T06:56:04.878Z,98988.61
2018-10-01T06:58:33.206Z,99000.39
2018-10-01T07:01:01.610Z,99002.09
2018-10-01T07:03:29.886Z,99002.45
2018-10-01T07:05:58.718Z,99006.31
2018-10-01T07:08:26.825Z,99004.17
2018-10-01T07:10:55.111Z,99004.17
2018-10-01T07:13:23.395Z,99010.27
2018-10-01T07:15:51.711Z,99010.66
2018-10-01T07:18:20.010Z,99010.16
2018-10-01T07:20:48.294Z,99016.30
2018-10-01T07:23:16.710Z,99017.30
2018-10-01T07:25:44.902Z,99015.67
2018-10-01T07:28:13.173Z,99022.30
2018-10-01T07:30:41.482Z,99031.99
2018-10-01T07:33:09.809Z,99030.25
2018-10-01T07:35:38.143Z,99040.77
2018-10-01T07:38:06.562Z,99033.19
2018-10-01T07:40:34.869Z,99031.98
2018-10-01T07:43:03.147Z,99041.02
2018-10-01T07:45:31.684Z,99043.66
2018-10-01T07:47:59.998Z,99039.50
2018-10-01T07:50:28.390Z,99038.77
2018-10-01T07:52:56.799Z,99053.37
2018-10-01T07:55:25.090Z,99053.25
2018-10-01T07:57:53.426Z,99060.14
2018-10-01T08:00:21.858Z,99057.73
2018-10-01T08:02:50.128Z,99054.27
2018-10-01T08:05:18.560Z,99041.85
2018-10-01T08:07:46.954Z,99068.54
2018-10-01T08:10:15.323Z,99068.92
2018-10-01T08:12:43.654Z,99071.80
2018-10-01T08:15:11.966Z,99074.06
2018-10-01T08:17:40.327Z,99070.67
2018-10-01T08:20:08.628Z,99079.35
2018-10-01T08:22:36.958Z,99084.06
2018-10-01T08:25:05.266Z,99092.86
2018-10-01T08:27:34.480Z,99088.39
2018-10-01T08:30:02.882Z,99093.48
2018-10-01T08:32:31.187Z,99094.63
2018-10-01T08:34:59.629Z,99099.22
2018-10-01T08:37:27.966Z,99092.26
2018-10-01T08:39:56.350Z,99100.36
2018-10-01T08:42:24.719Z,99099.63
2018-10-01T08:44:53.023Z,99110.29
2018-10-01T08:47:21.524Z,99111.50
2018-10-01T08:49:54.838Z,99115.81
2018-10-01T08:52:31.663Z,99109.70
2018-10-01T08:55:00.074Z,99115.39
2018-10-01T08:57:28.384Z,99120.73
2018-10-01T08:59:56.673Z,99116.80
2018-10-01T09:02:25.001Z,99118.89
2018-10-01T09:04:53.326Z,99123.60
2018-10-01T09:07:21.663Z,99128.94
2018-10-01T09:09:49.978Z,99126.98
2018-10-01T09:12:18.295Z,99128.78
2018-10-01T09:14:46.697Z,99133.34
2018-10-01T09:17:15.083Z,99131.05
2018-10-01T09:19:43.679Z,99135.38
2018-10-01T09:22:11.991Z,99137.80
2018-10-01T09:24:40.267Z,99140.33
2018-10-01T09:27:08.702Z,99140.56
2018-10-01T09:29:37.491Z,99146.52
2018-10-01T09:32:05.836Z,99143.42
2018-10-01T09:34:34.095Z,99144.54
2018-10-01T09:37:02.411Z,99145.22
2018-10-01T09:39:30.763Z,99142.83
2018-10-01T09:41:59.123Z,99144.17
2018-10-01T09:44:27.467Z,99139.36
2018-10-01T09:46:55.723Z,99152.73
2018-10-01T09:49:24.066Z,99155.08
2018-10-01T09:51:52.450Z,99150.98
2018-10-01T09:54:20.763Z,99146.15
2018-10-01T09:56:49.098Z,99141.19
2018-10-01T09:59:17.487Z,99150.94
2018-10-01T10:01:45.844Z,99143.05
2018-10-01T10:04:14.177Z,99146.89
2018-10-01T10:06:42.439Z,99145.16
2018-10-01T10:09:11.556Z,99153.97
2018-10-01T10:11:40.207Z,99151.77
2018-10-01T10:14:09.614Z,99144.35
2018-10-01T10:16:38.054Z,99148.12
2018-10-01T10:19:06.372Z,99145.00
2018-10-01T10:21:34.785Z,99140.65
2018-10-01T10:24:03.114Z,99155.68
2018-10-01T10:26:31.539Z,99147.59
2018-10-01T10:28:59.827Z,99154.13
2018-10-01T10:31:28.115Z,99147.17
2018-10-01T10:33:56.456Z,99147.39
2018-10-01T10:36:24.723Z,99139.09
2018-10-01T10:38:53.031Z,99136.34
2018-10-01T10:41:21.371Z,99140.30
2018-10-01T10:43:49.743Z,99141.29
2018-10-01T10:46:18.152Z,99136.50
2018-10-01T10:48:46.531Z,99140.70
2018-10-01T10:51:14.829Z,99130.31
2018-10-01T10:53:43.158Z,99143.61
2018-10-01T10:56:11.556Z,99137.22
2018-10-01T10:58:39.858Z,99148.74
2018-10-01T11:01:08.157Z,99142.17
2018-10-01T11:03:36.463Z,99149.92
2018-10-01T11:06:04.846Z,99155.03
2018-10-01T11:08:33.182Z,99169.73
2018-10-01T11:11:01.571Z,99178.87
2018-10-01T11:13:29.902Z,99183.09
2018-10-01T11:15:58.232Z,99192.01
2018-10-01T11:18:26.570Z,99195.49
2018-10-01T11:20:54.961Z,99200.43
2018-10-01T11:23:23.170Z,99210.55
2018-10-01T11:25:51.454Z,99213.17
2018-10-01T11:28:19.942Z,99205.07
2018-10-01T11:30:48.415Z,99209.52
2018-10-01T11:33:16.995Z,99200.23
2018-10-01T11:35:45.223Z,99199.30
2018-10-01T11:38:13.851Z,99199.03
2018-10-01T11:40:42.159Z,99190.24
2018-10-01T11:43:10.557Z,99183.39
2018-10-01T11:45:38.949Z,99175.56
2018-10-01T11:48:07.302Z,99184.80
2018-10-01T11:50:35.643Z,99185.84
2018-10-01T11:53:04.460Z,99193.52
2018-10-01T11:55:32.787Z,99183.50
2018-10-01T11:58:01.097Z,99189.00
2018-10-01T12:00:29.547Z,99192.94
2018-10-01T12:02:57.914Z,99188.35
2018-10-01T12:05:26.334Z,99190.14
2018-10-01T12:07:54.677Z,99179.89
2018-10-01T12:10:23.134Z,99177.98
2018-10-01T12:12:51.459Z,99171.73
2018-10-01T12:15:19.810Z,99171.86
2018-10-01T12:17:48.081Z,99164.73
2018-10-01T12:20:17.422Z,99168.61
2018-10-01T12:22:45.794Z,99168.25
2018-10-01T12:25:14.127Z,99186.09
2018-10-01T12:27:42.483Z,99193.38
2018-10-01T12:30:10.735Z,99217.67
2018-10-01T12:32:39.246Z,99217.91
2018-10-01T12:35:07.659Z,99219.36
2018-10-01T12:37:35.966Z,99227.33
2018-10-01T12:40:04.390Z,99225.03
2018-10-01T12:42:32.794Z,99226.23
2018-10-01T12:45:01.211Z,99222.09
2018-10-01T12:47:29.556Z,99224.47
2018-10-01T12:49:57.940Z,99223.24
2018-10-01T12:52:26.379Z,99229.65
2018-10-01T12:54:54.670Z,99227.70
2018-10-01T12:57:23.017Z,99232.55
2018-10-01T12:59:51.351Z,99236.02
2018-10-01T13:02:19.773Z,99234.22
2018-10-01T13:04:48.117Z,99235.55
2018-10-01T13:07:16.418Z,99232.55
2018-10-01T13:09:44.758Z,99237.84
2018-10-01T13:12:13.149Z,99234.34
2018-10-01T13:14:41.541Z,99235.28
2018-10-01T13:17:09.864Z,99242.42
2018-10-01T13:19:38.187Z,99227.83
2018-10-01T13:22:06.746Z,99228.77
2018-10-01T13:24:35.064Z,99246.02
2018-10-01T13:27:03.334Z,99235.91
2018-10-01T13:29:31.664Z,99245.66
2018-10-01T13:32:00.223Z,99234.58
2018-10-01T13:34:28.426Z,99242.66
2018-10-01T13:36:56.742Z,99245.31
2018-10-01T13:39:25.210Z,99250.12
2018-10-01T13:41:53.530Z,99254.60
2018-10-01T13:44:21.986Z,99253.75
2018-10-01T13:46:50.199Z,99259.53
2018-10-01T13:49:18.487Z,99275.45
2018-10-01T13:51:46.817Z,99294.99
2018-10-01T13:54:15.465Z,99302.09
2018-10-01T13:56:43.650Z,99275.21
2018-10-01T13:59:11.990Z,99265.54
2018-10-01T14:01:40.430Z,99268.66
2018-10-01T14:04:08.840Z,99270.84
2018-10-01T14:06:37.166Z,99280.02
2018-10-01T14:09:07.402Z,99269.41
2018-10-01T14:11:35.770Z,99264.59
2018-10-01T14:14:04.137Z,99260.70
2018-10-01T14:16:32.550Z,99269.99
2018-10-01T14:19:00.874Z,99265.54
2018-10-01T14:21:29.177Z,99266.75
2018-10-01T14:23:57.882Z,99264.48
2018-10-01T14:26:26.587Z,99270.14
2018-10-01T14:28:54.887Z,99265.57
2018-10-01T14:31:23.735Z,99269.90
2018-10-01T14:33:52.014Z,99265.33
2018-10-01T14:36:20.393Z,99261.97
2018-10-01T14:38:48.650Z,99263.91
2018-10-01T14:41:16.947Z,99262.34
2018-10-01T14:43:45.281Z,99267.32
2018-10-01T14:46:13.590Z,99262.63
2018-10-01T14:48:42.008Z,99263.74
2018-10-01T14:51:10.345Z,99262.05
2018-10-01T14:53:38.595Z,99269.44
2018-10-01T14:56:06.998Z,99267.16
2018-10-01T14:58:35.278Z,99270.78
2018-10-01T15:01:03.644Z,99268.38
2018-10-01T15:03:32.052Z,99271.14
2018-10-01T15:06:00.442Z,99267.17
2018-10-01T15:08:29.471Z,99268.64
2018-10-01T15:10:58.162Z,99284.47
2018-10-01T15:13:26.626Z,99301.72
2018-10-01T15:15:56.086Z,99300.02
2018-10-01T15:18:24.470Z,99297.70
2018-10-01T15:20:52.770Z,99302.03
2018-10-01T15:23:21.151Z,99295.41
2018-10-01T15:25:49.483Z,99288.83
2018-10-01T15:28:17.767Z,99304.27
2018-10-01T15:30:46.579Z,99305.92
2018-10-01T15:33:14.877Z,99304.18
2018-10-01T15:35:43.223Z,99304.24
2018-10-01T15:38:11.532Z,99305.56
2018-10-01T15:40:39.830Z,99299.34
2018-10-01T15:43:08.138Z,99305.58
2018-10-01T15:45:36.503Z,99304.77
2018-10-01T15:48:04.830Z,99304.70
2018-10-01T15:50:33.258Z,99315.14
2018-10-01T15:53:02.103Z,99315.45
2018-10-01T15:55:30.423Z,99319.09
2018-10-01T15:57:59.223Z,99325.52
2018-10-01T16:00:27.914Z,99325.30
2018-10-01T16:02:56.259Z,99318.53
2018-10-01T16:05:24.561Z,99319.16
2018-10-01T16:07:52.851Z,99331.17
2018-10-01T16:10:21.574Z,99334.70
2018-10-01T16:12:49.907Z,99336.41
2018-10-01T16:15:18.242Z,99342.27
2018-10-01T16:17:46.568Z,99331.72
2018-10-01T16:20:14.883Z,99334.89
2018-10-01T16:22:43.401Z,99329.34
2018-10-01T16:25:11.953Z,99336.67
2018-10-01T16:27:40.443Z,99334.75
2018-10-01T16:30:09.183Z,99345.59
2018-10-01T16:32:37.570Z,99344.02
2018-10-01T16:35:05.947Z,99342.61
2018-10-01T16:37:34.262Z,99346.55
2018-10-01T16:40:02.698Z,99348.63
2018-10-01T16:42:31.617Z,99360.73
2018-10-01T16:45:00.570Z,99363.71
2018-10-01T16:47:28.938Z,99374.81
2018-10-01T16:49:57.273Z,99386.92
2018-10-01T16:52:25.559Z,99395.50
2018-10-01T16:54:54.065Z,99409.77
2018-10-01T16:57:22.672Z,99417.50
2018-10-01T16:59:51.395Z,99427.80
2018-10-01T17:02:19.722Z,99427.80
2018-10-01T17:04:48.097Z,99411.93
2018-10-01T17:07:16.492Z,99398.41
2018-10-01T17:09:44.817Z,99406.66
2018-10-01T17:12:13.163Z,99414.38
2018-10-01T17:14:41.523Z,99418.73
2018-10-01T17:17:09.869Z,99415.98
2018-10-01T17:19:38.227Z,99422.59
2018-10-01T17:22:06.762Z,99424.52
2018-10-01T17:24:35.080Z,99429.34
2018-10-01T17:27:03.414Z,99436.28
2018-10-01T17:29:32.045Z,99438.52
2018-10-01T17:32:00.376Z,99445.97
2018-10-01T17:34:28.740Z,99451.73
2018-10-01T17:36:57.074Z,99455.30
2018-10-01T17:39:25.358Z,99461.50
2018-10-01T17:41:53.702Z,99465.55
2018-10-01T17:44:21.987Z,99470.64
2018-10-01T17:46:50.291Z,99477.43
2018-10-01T17:49:18.614Z,99474.52
2018-10-01T17:51:46.959Z,99468.85
2018-10-01T17:54:15.407Z,99472.72
2018-10-01T17:56:43.699Z,99471.47
2018-10-01T17:59:12.021Z,99479.39
2018-10-01T18:01:40.404Z,99468.88
2018-10-01T18:04:08.863Z,99482.77
2018-10-01T18:06:37.353Z,99492.14
2018-10-01T18:09:08.617Z,99489.31
2018-10-01T18:11:37.130Z,99492.55
2018-10-01T18:14:05.481Z,99494.73
2018-10-01T18:16:33.933Z,99502.77
2018-10-01T18:19:02.210Z,99504.96
2018-10-01T18:21:30.721Z,99512.63
2018-10-01T18:23:59.187Z,99521.22
2018-10-01T18:26:27.546Z,99526.64
2018-10-01T18:28:56.110Z,99521.63
2018-10-01T18:31:24.603Z,99528.16
2018-10-01T18:33:53.034Z,99527.68
2018-10-01T18:36:21.462Z,99523.48
2018-10-01T18:38:49.899Z,99520.92
2018-10-01T18:41:18.217Z,99523.91
2018-10-01T18:43:46.801Z,99526.73
2018-10-01T18:46:15.083Z,99526.43
2018-10-01T18:48:43.423Z,99525.88
2018-10-01T18:51:11.795Z,99532.03
2018-10-01T18:53:40.200Z,99524.81
2018-10-01T18:56:08.616Z,99526.00
2018-10-01T18:58:36.990Z,99526.79
2018-10-01T19:01:06.779Z,99534.03
2018-10-01T19:03:35.258Z,99532.63
2018-10-01T19:06:03.614Z,99533.12
2018-10-01T19:08:32.139Z,99533.23
2018-10-01T19:11:00.511Z,99533.33
2018-10-01T19:13:28.922Z,99535.48
2018-10-01T19:15:57.331Z,99539.43
2018-10-01T19:18:25.659Z,99536.91
2018-10-01T19:20:53.984Z,99543.05
2018-10-01T19:23:22.356Z,99543.05
2018-10-01T19:25:50.725Z,99541.34
2018-10-01T19:28:19.106Z,99542.27
2018-10-01T19:30:47.438Z,99543.77
2018-10-01T19:33:15.897Z,99544.55
2018-10-01T19:35:44.234Z,99546.81
2018-10-01T19:38:12.611Z,99547.96
2018-10-01T19:40:40.978Z,99548.52
2018-10-01T19:43:09.413Z,99548.00
2018-10-01T19:45:38.259Z,99551.80
2018-10-01T19:48:38.004Z,99556.92
2018-10-01T19:51:06.626Z,99556.80
2018-10-01T19:53:35.247Z,99565.72
2018-10-01T19:56:03.596Z,99564.45
2018-10-01T19:58:31.931Z,99562.22
2018-10-01T20:01:00.247Z,99561.16
2018-10-01T20:03:28.694Z,99566.80
2018-10-01T20:05:57.123Z,99570.41
2018-10-01T20:08:25.570Z,99564.11
2018-10-01T20:10:53.940Z,99564.20
2018-10-01T20:13:22.406Z,99571.15
2018-10-01T20:15:50.794Z,99574.11
2018-10-01T20:18:19.122Z,99581.37
2018-10-01T20:20:47.506Z,99581.42
2018-10-01T20:23:15.859Z,99582.00
2018-10-01T20:25:44.423Z,99584.97
2018-10-01T20:28:12.896Z,99586.65
2018-10-01T20:30:41.187Z,99583.55
2018-10-01T20:33:10.316Z,99580.92
2018-10-01T20:35:38.799Z,99578.33
2018-10-01T20:38:07.200Z,99584.44
2018-10-01T20:40:35.520Z,99588.13
2018-10-01T20:43:04.229Z,99579.19
2018-10-01T20:45:32.510Z,99583.61
2018-10-01T20:48:00.949Z,99575.50
2018-10-01T20:50:29.326Z,99580.78
2018-10-01T20:52:57.755Z,99582.50
2018-10-01T20:55:26.070Z,99575.25
2018-10-01T20:57:54.631Z,99573.09
2018-10-01T21:00:23.077Z,99582.72
2018-10-01T21:02:51.515Z,99581.91
2018-10-01T21:05:20.010Z,99576.49
2018-10-01T21:07:48.299Z,99582.73
2018-10-01T21:10:16.689Z,99572.42
2018-10-01T21:12:45.010Z,99572.70
2018-10-01T21:15:13.355Z,99575.91
2018-10-01T21:17:42.650Z,99577.48
2018-10-01T21:20:10.990Z,99569.03
2018-10-01T21:22:39.312Z,99573.78
2018-10-01T21:25:07.688Z,99570.66
2018-10-01T21:27:35.995Z,99569.39
2018-10-01T21:30:04.762Z,99567.57
2018-10-01T21:32:33.065Z,99565.27
2018-10-01T21:35:01.363Z,99569.33
2018-10-01T21:37:29.683Z,99564.97
2018-10-01T21:40:06.975Z,99576.52
2018-10-01T21:42:35.301Z,99571.72
2018-10-01T21:45:03.986Z,99572.47
2018-10-01T21:47:32.824Z,99572.48
2018-10-01T21:50:01.209Z,99572.88
2018-10-01T21:52:29.849Z,99569.88
2018-10-01T21:54:58.402Z,99571.48
2018-10-01T21:57:26.782Z,99576.45
2018-10-01T21:59:55.143Z,99571.95
2018-10-01T22:02:23.467Z,99576.34
2018-10-01T22:04:51.786Z,99574.19
2018-10-01T22:07:20.256Z,99576.14
2018-10-01T22:09:49.159Z,99581.86
2018-10-01T22:12:17.489Z,99567.55
2018-10-01T22:14:45.863Z,99574.25
2018-10-01T22:17:15.162Z,99576.45
2018-10-01T22:19:43.491Z,99578.12
2018-10-01T22:22:11.858Z,99578.64
2018-10-01T22:24:40.187Z,99583.83
2018-10-01T22:27:08.514Z,99583.74
2018-10-01T22:29:36.943Z,99581.08
2018-10-01T22:32:05.251Z,99580.91
2018-10-01T22:34:33.542Z,99581.77
2018-10-01T22:37:01.914Z,99579.35
2018-10-01T22:39:30.198Z,99569.20
2018-10-01T22:41:58.477Z,99568.09
2018-10-01T22:44:26.774Z,99564.95
2018-10-01T22:46:55.083Z,99565.58
2018-10-01T22:49:23.503Z,99565.32
2018-10-01T22:51:51.814Z,99566.52
2018-10-01T22:54:20.166Z,99562.77
2018-10-01T22:56:48.442Z,99562.16
2018-10-01T22:59:17.259Z,99557.95
2018-10-01T23:01:45.550Z,99559.02
2018-10-01T23:04:13.826Z,99553.59
2018-10-01T23:06:42.140Z,99557.80
2018-10-01T23:09:10.502Z,99559.03
2018-10-01T23:11:38.813Z,99558.30
2018-10-01T23:14:07.159Z,99558.66
2018-10-01T23:16:35.465Z,99566.85
2018-10-01T23:19:03.754Z,99567.06
2018-10-01T23:21:32.082Z,99568.52
2018-10-01T23:24:00.473Z,99562.58
2018-10-01T23:26:28.773Z,99565.84
2018-10-01T23:28:57.047Z,99569.95
2018-10-01T23:31:25.377Z,99564.52
2018-10-01T23:33:53.780Z,99565.94
2018-10-01T23:36:22.150Z,99567.16
2018-10-01T23:38:50.562Z,99566.08
2018-10-01T23:41:19.286Z,99563.15
2018-10-01T23:43:47.598Z,99570.39
2018-10-01T23:46:15.891Z,99575.48
2018-10-01T23:48:44.174Z,99576.54
2018-10-01T23:51:12.538Z,99577.13
2018-10-01T23:53:41.574Z,99582.69
2018-10-01T23:56:09.918Z,99583.28
2018-10-01T23:58:38.254Z,99584.38
